sensor_id;sensor_type;location;lat;lon;timestamp;P1;durP1;ratioP1;P2;durP2;ratioP2
32216;SDS011;67098;51.140;4.088;2023-09-30T00:01:00;15.73;;;7.78;;
32216;SDS011;67098;51.140;4.088;2023-09-30T00:03:27;13.25;;;6.88;;
32216;SDS011;67098;51.140;4.088;2023-09-30T00:05:53;10.43;;;6.43;;
32216;SDS011;67098;51.140;4.088;2023-09-30T00:08:19;15.30;;;6.43;;
32216;SDS011;67098;51.140;4.088;2023-09-30T00:10:45;16.45;;;7.85;;
32216;SDS011;67098;51.140;4.088;2023-09-30T00:13:11;15.80;;;7.35;;
32216;SDS011;67098;51.140;4.088;2023-09-30T00:15:38;17.23;;;7.35;;
32216;SDS011;67098;51.140;4.088;2023-09-30T00:18:04;14.73;;;7.72;;
32216;SDS011;67098;51.140;4.088;2023-09-30T00:20:30;17.05;;;6.75;;
32216;SDS011;67098;51.140;4.088;2023-09-30T00:22:57;17.88;;;7.10;;
32216;SDS011;67098;51.140;4.088;2023-09-30T00:25:23;16.63;;;7.35;;
32216;SDS011;67098;51.140;4.088;2023-09-30T00:27:49;19.40;;;7.95;;
32216;SDS011;67098;51.140;4.088;2023-09-30T00:30:14;11.13;;;6.63;;
32216;SDS011;67098;51.140;4.088;2023-09-30T00:32:40;20.83;;;6.97;;
32216;SDS011;67098;51.140;4.088;2023-09-30T00:35:06;16.63;;;7.22;;
32216;SDS011;67098;51.140;4.088;2023-09-30T00:37:36;14.63;;;7.00;;
32216;SDS011;67098;51.140;4.088;2023-09-30T00:40:05;15.13;;;7.10;;
32216;SDS011;67098;51.140;4.088;2023-09-30T00:42:32;15.90;;;7.45;;
32216;SDS011;67098;51.140;4.088;2023-09-30T00:44:58;17.20;;;7.22;;
32216;SDS011;67098;51.140;4.088;2023-09-30T00:47:23;14.02;;;6.70;;
32216;SDS011;67098;51.140;4.088;2023-09-30T00:49:51;20.10;;;7.93;;
32216;SDS011;67098;51.140;4.088;2023-09-30T00:52:19;13.52;;;6.32;;
32216;SDS011;67098;51.140;4.088;2023-09-30T00:54:45;16.45;;;6.80;;
32216;SDS011;67098;51.140;4.088;2023-09-30T00:57:12;17.80;;;7.07;;
32216;SDS011;67098;51.140;4.088;2023-09-30T00:59:39;14.30;;;6.55;;
32216;SDS011;67098;51.140;4.088;2023-09-30T01:02:06;15.80;;;6.85;;
32216;SDS011;67098;51.140;4.088;2023-09-30T01:04:32;16.35;;;6.85;;
32216;SDS011;67098;51.140;4.088;2023-09-30T01:06:58;12.80;;;6.35;;
32216;SDS011;67098;51.140;4.088;2023-09-30T01:09:24;15.18;;;6.95;;
32216;SDS011;67098;51.140;4.088;2023-09-30T01:11:50;16.92;;;6.90;;
32216;SDS011;67098;51.140;4.088;2023-09-30T01:14:25;14.23;;;7.32;;
32216;SDS011;67098;51.140;4.088;2023-09-30T01:16:56;15.75;;;7.28;;
32216;SDS011;67098;51.140;4.088;2023-09-30T01:19:22;19.48;;;6.57;;
32216;SDS011;67098;51.140;4.088;2023-09-30T01:21:51;13.65;;;6.22;;
32216;SDS011;67098;51.140;4.088;2023-09-30T01:24:19;13.80;;;6.70;;
32216;SDS011;67098;51.140;4.088;2023-09-30T01:26:45;12.85;;;6.75;;
32216;SDS011;67098;51.140;4.088;2023-09-30T01:29:11;13.85;;;6.40;;
32216;SDS011;67098;51.140;4.088;2023-09-30T01:31:37;15.57;;;6.32;;
32216;SDS011;67098;51.140;4.088;2023-09-30T01:34:04;12.50;;;6.18;;
32216;SDS011;67098;51.140;4.088;2023-09-30T01:36:30;20.55;;;7.70;;
32216;SDS011;67098;51.140;4.088;2023-09-30T01:38:57;16.20;;;6.60;;
32216;SDS011;67098;51.140;4.088;2023-09-30T01:41:22;11.90;;;6.70;;
32216;SDS011;67098;51.140;4.088;2023-09-30T01:43:48;13.05;;;5.88;;
32216;SDS011;67098;51.140;4.088;2023-09-30T01:46:14;20.73;;;6.63;;
32216;SDS011;67098;51.140;4.088;2023-09-30T01:48:40;16.70;;;6.47;;
32216;SDS011;67098;51.140;4.088;2023-09-30T01:51:06;14.57;;;6.47;;
32216;SDS011;67098;51.140;4.088;2023-09-30T01:53:32;17.23;;;7.07;;
32216;SDS011;67098;51.140;4.088;2023-09-30T01:55:58;14.05;;;6.25;;
32216;SDS011;67098;51.140;4.088;2023-09-30T01:58:24;15.90;;;6.85;;
32216;SDS011;67098;51.140;4.088;2023-09-30T02:00:51;17.08;;;7.13;;
32216;SDS011;67098;51.140;4.088;2023-09-30T02:03:18;15.82;;;6.65;;
32216;SDS011;67098;51.140;4.088;2023-09-30T02:05:43;12.68;;;6.45;;
32216;SDS011;67098;51.140;4.088;2023-09-30T02:08:09;15.45;;;6.47;;
32216;SDS011;67098;51.140;4.088;2023-09-30T02:10:35;16.02;;;7.18;;
32216;SDS011;67098;51.140;4.088;2023-09-30T02:13:01;14.38;;;7.38;;
32216;SDS011;67098;51.140;4.088;2023-09-30T02:15:31;13.95;;;6.75;;
32216;SDS011;67098;51.140;4.088;2023-09-30T02:17:57;21.45;;;6.72;;
32216;SDS011;67098;51.140;4.088;2023-09-30T02:20:23;16.77;;;7.00;;
32216;SDS011;67098;51.140;4.088;2023-09-30T02:22:51;17.17;;;7.07;;
32216;SDS011;67098;51.140;4.088;2023-09-30T02:25:17;15.45;;;6.78;;
32216;SDS011;67098;51.140;4.088;2023-09-30T02:27:43;15.57;;;7.18;;
32216;SDS011;67098;51.140;4.088;2023-09-30T02:30:10;16.85;;;7.30;;
32216;SDS011;67098;51.140;4.088;2023-09-30T02:32:41;18.23;;;6.97;;
32216;SDS011;67098;51.140;4.088;2023-09-30T02:35:07;12.60;;;7.15;;
32216;SDS011;67098;51.140;4.088;2023-09-30T02:37:36;20.27;;;7.25;;
32216;SDS011;67098;51.140;4.088;2023-09-30T02:40:03;15.05;;;6.95;;
32216;SDS011;67098;51.140;4.088;2023-09-30T02:42:30;24.15;;;7.80;;
32216;SDS011;67098;51.140;4.088;2023-09-30T02:44:58;16.40;;;7.05;;
32216;SDS011;67098;51.140;4.088;2023-09-30T02:47:25;15.70;;;7.03;;
32216;SDS011;67098;51.140;4.088;2023-09-30T02:49:51;19.08;;;7.95;;
32216;SDS011;67098;51.140;4.088;2023-09-30T02:52:17;18.27;;;7.13;;
32216;SDS011;67098;51.140;4.088;2023-09-30T02:54:42;15.85;;;7.65;;
32216;SDS011;67098;51.140;4.088;2023-09-30T02:57:08;18.40;;;7.43;;
32216;SDS011;67098;51.140;4.088;2023-09-30T02:59:34;17.55;;;7.68;;
32216;SDS011;67098;51.140;4.088;2023-09-30T03:02:01;15.30;;;7.30;;
32216;SDS011;67098;51.140;4.088;2023-09-30T03:04:28;18.90;;;7.88;;
32216;SDS011;67098;51.140;4.088;2023-09-30T03:06:54;16.73;;;8.77;;
32216;SDS011;67098;51.140;4.088;2023-09-30T03:09:21;18.38;;;8.13;;
32216;SDS011;67098;51.140;4.088;2023-09-30T03:11:47;15.30;;;7.30;;
32216;SDS011;67098;51.140;4.088;2023-09-30T03:14:13;17.13;;;8.07;;
32216;SDS011;67098;51.140;4.088;2023-09-30T03:16:39;15.80;;;7.70;;
32216;SDS011;67098;51.140;4.088;2023-09-30T03:19:06;16.85;;;8.30;;
32216;SDS011;67098;51.140;4.088;2023-09-30T03:21:33;18.40;;;8.30;;
32216;SDS011;67098;51.140;4.088;2023-09-30T03:24:03;16.02;;;8.07;;
32216;SDS011;67098;51.140;4.088;2023-09-30T03:26:29;22.83;;;8.70;;
32216;SDS011;67098;51.140;4.088;2023-09-30T03:28:56;18.13;;;8.57;;
32216;SDS011;67098;51.140;4.088;2023-09-30T03:31:22;20.83;;;8.60;;
32216;SDS011;67098;51.140;4.088;2023-09-30T03:33:49;20.25;;;8.52;;
32216;SDS011;67098;51.140;4.088;2023-09-30T03:36:16;19.92;;;8.65;;
32216;SDS011;67098;51.140;4.088;2023-09-30T03:38:43;19.38;;;8.88;;
32216;SDS011;67098;51.140;4.088;2023-09-30T03:41:10;27.00;;;10.05;;
32216;SDS011;67098;51.140;4.088;2023-09-30T03:43:38;23.33;;;9.82;;
32216;SDS011;67098;51.140;4.088;2023-09-30T03:46:09;17.40;;;8.82;;
32216;SDS011;67098;51.140;4.088;2023-09-30T03:48:34;21.13;;;9.80;;
32216;SDS011;67098;51.140;4.088;2023-09-30T03:51:14;21.02;;;9.43;;
32216;SDS011;67098;51.140;4.088;2023-09-30T03:53:41;22.08;;;10.30;;
32216;SDS011;67098;51.140;4.088;2023-09-30T03:56:07;23.33;;;10.23;;
32216;SDS011;67098;51.140;4.088;2023-09-30T03:58:33;20.20;;;8.77;;
32216;SDS011;67098;51.140;4.088;2023-09-30T04:00:59;17.90;;;9.23;;
32216;SDS011;67098;51.140;4.088;2023-09-30T04:03:25;21.30;;;10.02;;
32216;SDS011;67098;51.140;4.088;2023-09-30T04:05:52;20.65;;;9.82;;
32216;SDS011;67098;51.140;4.088;2023-09-30T04:08:18;24.40;;;10.38;;
32216;SDS011;67098;51.140;4.088;2023-09-30T04:10:44;21.70;;;10.13;;
32216;SDS011;67098;51.140;4.088;2023-09-30T04:13:10;18.40;;;9.48;;
32216;SDS011;67098;51.140;4.088;2023-09-30T04:15:38;19.25;;;9.98;;
32216;SDS011;67098;51.140;4.088;2023-09-30T04:18:04;26.30;;;9.98;;
32216;SDS011;67098;51.140;4.088;2023-09-30T04:20:31;19.88;;;9.95;;
32216;SDS011;67098;51.140;4.088;2023-09-30T04:22:56;20.33;;;9.88;;
32216;SDS011;67098;51.140;4.088;2023-09-30T04:25:23;20.88;;;10.15;;
32216;SDS011;67098;51.140;4.088;2023-09-30T04:27:52;26.02;;;11.30;;
32216;SDS011;67098;51.140;4.088;2023-09-30T04:30:18;25.73;;;11.02;;
32216;SDS011;67098;51.140;4.088;2023-09-30T04:32:44;24.20;;;11.35;;
32216;SDS011;67098;51.140;4.088;2023-09-30T04:35:10;21.00;;;10.70;;
32216;SDS011;67098;51.140;4.088;2023-09-30T04:37:37;20.20;;;9.77;;
32216;SDS011;67098;51.140;4.088;2023-09-30T04:40:04;19.63;;;10.73;;
32216;SDS011;67098;51.140;4.088;2023-09-30T04:42:48;21.33;;;11.00;;
32216;SDS011;67098;51.140;4.088;2023-09-30T04:45:14;23.08;;;9.95;;
32216;SDS011;67098;51.140;4.088;2023-09-30T04:47:49;21.30;;;9.50;;
32216;SDS011;67098;51.140;4.088;2023-09-30T04:50:15;26.48;;;10.82;;
32216;SDS011;67098;51.140;4.088;2023-09-30T04:52:42;20.70;;;10.73;;
32216;SDS011;67098;51.140;4.088;2023-09-30T04:55:10;24.45;;;11.27;;
32216;SDS011;67098;51.140;4.088;2023-09-30T04:57:37;24.77;;;11.85;;
32216;SDS011;67098;51.140;4.088;2023-09-30T05:00:03;29.40;;;12.02;;
32216;SDS011;67098;51.140;4.088;2023-09-30T05:02:36;30.13;;;12.00;;
32216;SDS011;67098;51.140;4.088;2023-09-30T05:05:03;26.88;;;12.45;;
32216;SDS011;67098;51.140;4.088;2023-09-30T05:07:32;24.83;;;11.23;;
32216;SDS011;67098;51.140;4.088;2023-09-30T05:09:58;23.55;;;11.02;;
32216;SDS011;67098;51.140;4.088;2023-09-30T05:12:25;21.92;;;10.93;;
32216;SDS011;67098;51.140;4.088;2023-09-30T05:14:51;30.75;;;11.82;;
32216;SDS011;67098;51.140;4.088;2023-09-30T05:17:17;36.45;;;11.82;;
32216;SDS011;67098;51.140;4.088;2023-09-30T05:19:43;26.10;;;11.73;;
32216;SDS011;67098;51.140;4.088;2023-09-30T05:22:09;25.50;;;12.85;;
32216;SDS011;67098;51.140;4.088;2023-09-30T05:24:35;25.42;;;12.63;;
32216;SDS011;67098;51.140;4.088;2023-09-30T05:27:01;27.42;;;12.07;;
32216;SDS011;67098;51.140;4.088;2023-09-30T05:29:27;31.58;;;11.90;;
32216;SDS011;67098;51.140;4.088;2023-09-30T05:31:53;30.40;;;12.63;;
32216;SDS011;67098;51.140;4.088;2023-09-30T05:34:19;27.63;;;12.70;;
32216;SDS011;67098;51.140;4.088;2023-09-30T05:36:45;24.00;;;12.45;;
32216;SDS011;67098;51.140;4.088;2023-09-30T05:39:12;34.22;;;13.02;;
32216;SDS011;67098;51.140;4.088;2023-09-30T05:41:38;24.38;;;11.50;;
32216;SDS011;67098;51.140;4.088;2023-09-30T05:44:04;20.77;;;11.18;;
32216;SDS011;67098;51.140;4.088;2023-09-30T05:46:32;30.83;;;12.93;;
32216;SDS011;67098;51.140;4.088;2023-09-30T05:48:58;30.75;;;12.43;;
32216;SDS011;67098;51.140;4.088;2023-09-30T05:51:24;24.25;;;12.15;;
32216;SDS011;67098;51.140;4.088;2023-09-30T05:53:49;24.98;;;12.90;;
32216;SDS011;67098;51.140;4.088;2023-09-30T05:56:15;22.80;;;12.00;;
32216;SDS011;67098;51.140;4.088;2023-09-30T05:58:44;27.38;;;12.27;;
32216;SDS011;67098;51.140;4.088;2023-09-30T06:01:10;27.63;;;12.02;;
32216;SDS011;67098;51.140;4.088;2023-09-30T06:03:36;22.60;;;12.10;;
32216;SDS011;67098;51.140;4.088;2023-09-30T06:06:14;29.80;;;12.77;;
32216;SDS011;67098;51.140;4.088;2023-09-30T06:08:43;26.70;;;13.30;;
32216;SDS011;67098;51.140;4.088;2023-09-30T06:11:18;26.38;;;12.40;;
32216;SDS011;67098;51.140;4.088;2023-09-30T06:13:53;26.98;;;12.23;;
32216;SDS011;67098;51.140;4.088;2023-09-30T06:16:24;24.13;;;12.20;;
32216;SDS011;67098;51.140;4.088;2023-09-30T06:18:51;25.17;;;11.43;;
32216;SDS011;67098;51.140;4.088;2023-09-30T06:21:17;24.52;;;11.93;;
32216;SDS011;67098;51.140;4.088;2023-09-30T06:23:48;25.38;;;11.98;;
32216;SDS011;67098;51.140;4.088;2023-09-30T06:28:43;25.25;;;12.50;;
32216;SDS011;67098;51.140;4.088;2023-09-30T06:31:10;26.33;;;13.15;;
32216;SDS011;67098;51.140;4.088;2023-09-30T06:33:36;27.92;;;13.07;;
32216;SDS011;67098;51.140;4.088;2023-09-30T06:38:34;33.13;;;13.32;;
32216;SDS011;67098;51.140;4.088;2023-09-30T06:41:02;28.75;;;12.90;;
32216;SDS011;67098;51.140;4.088;2023-09-30T06:43:28;25.13;;;12.55;;
32216;SDS011;67098;51.140;4.088;2023-09-30T06:45:54;30.67;;;13.18;;
32216;SDS011;67098;51.140;4.088;2023-09-30T06:48:19;26.85;;;12.50;;
32216;SDS011;67098;51.140;4.088;2023-09-30T06:50:46;34.78;;;12.90;;
32216;SDS011;67098;51.140;4.088;2023-09-30T06:53:14;38.35;;;14.05;;
32216;SDS011;67098;51.140;4.088;2023-09-30T06:55:42;30.90;;;13.57;;
32216;SDS011;67098;51.140;4.088;2023-09-30T06:58:08;34.08;;;13.80;;
32216;SDS011;67098;51.140;4.088;2023-09-30T07:00:36;32.40;;;13.32;;
32216;SDS011;67098;51.140;4.088;2023-09-30T07:03:10;34.63;;;14.57;;
32216;SDS011;67098;51.140;4.088;2023-09-30T07:05:36;25.48;;;12.77;;
32216;SDS011;67098;51.140;4.088;2023-09-30T07:08:02;31.77;;;14.23;;
32216;SDS011;67098;51.140;4.088;2023-09-30T07:10:28;31.48;;;13.68;;
32216;SDS011;67098;51.140;4.088;2023-09-30T07:12:54;29.48;;;14.02;;
32216;SDS011;67098;51.140;4.088;2023-09-30T07:15:20;31.02;;;14.55;;
32216;SDS011;67098;51.140;4.088;2023-09-30T07:17:46;30.13;;;15.00;;
32216;SDS011;67098;51.140;4.088;2023-09-30T07:20:12;37.03;;;16.85;;
32216;SDS011;67098;51.140;4.088;2023-09-30T07:22:39;35.55;;;17.38;;
32216;SDS011;67098;51.140;4.088;2023-09-30T07:25:05;34.58;;;16.52;;
32216;SDS011;67098;51.140;4.088;2023-09-30T07:27:32;35.60;;;17.15;;
32216;SDS011;67098;51.140;4.088;2023-09-30T07:29:58;39.63;;;16.98;;
32216;SDS011;67098;51.140;4.088;2023-09-30T07:32:25;36.38;;;16.77;;
32216;SDS011;67098;51.140;4.088;2023-09-30T07:34:51;35.72;;;17.83;;
32216;SDS011;67098;51.140;4.088;2023-09-30T07:37:17;43.15;;;18.75;;
32216;SDS011;67098;51.140;4.088;2023-09-30T07:39:44;41.40;;;19.00;;
32216;SDS011;67098;51.140;4.088;2023-09-30T07:42:10;41.45;;;18.42;;
32216;SDS011;67098;51.140;4.088;2023-09-30T07:44:38;37.53;;;17.77;;
32216;SDS011;67098;51.140;4.088;2023-09-30T07:47:04;43.63;;;19.52;;
32216;SDS011;67098;51.140;4.088;2023-09-30T07:49:33;45.75;;;18.95;;
32216;SDS011;67098;51.140;4.088;2023-09-30T07:52:00;42.47;;;18.52;;
32216;SDS011;67098;51.140;4.088;2023-09-30T07:54:25;39.25;;;18.15;;
32216;SDS011;67098;51.140;4.088;2023-09-30T07:56:51;40.13;;;18.17;;
32216;SDS011;67098;51.140;4.088;2023-09-30T07:59:17;40.25;;;19.50;;
32216;SDS011;67098;51.140;4.088;2023-09-30T08:01:43;43.30;;;19.77;;
32216;SDS011;67098;51.140;4.088;2023-09-30T08:04:09;40.22;;;18.90;;
32216;SDS011;67098;51.140;4.088;2023-09-30T08:06:35;39.97;;;20.42;;
32216;SDS011;67098;51.140;4.088;2023-09-30T08:09:01;44.85;;;20.52;;
32216;SDS011;67098;51.140;4.088;2023-09-30T08:11:27;47.13;;;21.65;;
32216;SDS011;67098;51.140;4.088;2023-09-30T08:13:56;45.65;;;21.17;;
32216;SDS011;67098;51.140;4.088;2023-09-30T08:16:24;45.78;;;21.20;;
32216;SDS011;67098;51.140;4.088;2023-09-30T08:18:50;51.33;;;22.42;;
32216;SDS011;67098;51.140;4.088;2023-09-30T08:21:15;48.80;;;22.13;;
32216;SDS011;67098;51.140;4.088;2023-09-30T08:23:41;57.33;;;22.80;;
32216;SDS011;67098;51.140;4.088;2023-09-30T08:26:09;49.90;;;22.17;;
32216;SDS011;67098;51.140;4.088;2023-09-30T08:28:35;44.55;;;22.52;;
32216;SDS011;67098;51.140;4.088;2023-09-30T08:31:04;49.88;;;23.02;;
32216;SDS011;67098;51.140;4.088;2023-09-30T08:33:31;52.50;;;23.20;;
32216;SDS011;67098;51.140;4.088;2023-09-30T08:36:06;49.30;;;23.10;;
32216;SDS011;67098;51.140;4.088;2023-09-30T08:38:34;51.17;;;24.65;;
32216;SDS011;67098;51.140;4.088;2023-09-30T08:41:00;46.47;;;23.38;;
32216;SDS011;67098;51.140;4.088;2023-09-30T08:43:27;51.28;;;24.83;;
32216;SDS011;67098;51.140;4.088;2023-09-30T08:45:56;53.38;;;23.52;;
32216;SDS011;67098;51.140;4.088;2023-09-30T08:48:25;48.15;;;24.17;;
32216;SDS011;67098;51.140;4.088;2023-09-30T08:50:52;53.92;;;24.05;;
32216;SDS011;67098;51.140;4.088;2023-09-30T08:53:19;51.05;;;24.38;;
32216;SDS011;67098;51.140;4.088;2023-09-30T08:55:46;54.42;;;24.83;;
32216;SDS011;67098;51.140;4.088;2023-09-30T08:58:13;48.55;;;23.17;;
32216;SDS011;67098;51.140;4.088;2023-09-30T09:00:39;55.42;;;23.10;;
32216;SDS011;67098;51.140;4.088;2023-09-30T09:03:08;50.00;;;23.83;;
32216;SDS011;67098;51.140;4.088;2023-09-30T09:05:35;51.40;;;23.77;;
32216;SDS011;67098;51.140;4.088;2023-09-30T09:08:01;46.63;;;21.35;;
32216;SDS011;67098;51.140;4.088;2023-09-30T09:10:28;48.08;;;22.95;;
32216;SDS011;67098;51.140;4.088;2023-09-30T09:12:55;55.65;;;23.60;;
32216;SDS011;67098;51.140;4.088;2023-09-30T09:15:23;44.72;;;20.75;;
32216;SDS011;67098;51.140;4.088;2023-09-30T09:17:50;44.30;;;20.00;;
32216;SDS011;67098;51.140;4.088;2023-09-30T09:20:18;47.45;;;19.48;;
32216;SDS011;67098;51.140;4.088;2023-09-30T09:22:47;41.20;;;16.88;;
32216;SDS011;67098;51.140;4.088;2023-09-30T09:25:22;43.50;;;16.90;;
32216;SDS011;67098;51.140;4.088;2023-09-30T09:27:52;43.28;;;16.05;;
32216;SDS011;67098;51.140;4.088;2023-09-30T09:30:25;38.87;;;14.07;;
32216;SDS011;67098;51.140;4.088;2023-09-30T09:32:52;39.97;;;14.27;;
32216;SDS011;67098;51.140;4.088;2023-09-30T09:35:20;38.83;;;14.93;;
32216;SDS011;67098;51.140;4.088;2023-09-30T09:38:02;39.85;;;14.27;;
32216;SDS011;67098;51.140;4.088;2023-09-30T09:40:32;39.72;;;13.13;;
32216;SDS011;67098;51.140;4.088;2023-09-30T09:42:59;33.25;;;11.70;;
32216;SDS011;67098;51.140;4.088;2023-09-30T09:45:27;38.53;;;13.45;;
32216;SDS011;67098;51.140;4.088;2023-09-30T09:47:55;40.30;;;13.50;;
32216;SDS011;67098;51.140;4.088;2023-09-30T09:50:23;35.72;;;13.57;;
32216;SDS011;67098;51.140;4.088;2023-09-30T09:52:49;35.40;;;14.05;;
32216;SDS011;67098;51.140;4.088;2023-09-30T09:55:23;40.38;;;12.75;;
32216;SDS011;67098;51.140;4.088;2023-09-30T09:57:50;36.45;;;13.23;;
32216;SDS011;67098;51.140;4.088;2023-09-30T10:00:16;36.88;;;11.63;;
32216;SDS011;67098;51.140;4.088;2023-09-30T10:02:44;28.35;;;9.55;;
32216;SDS011;67098;51.140;4.088;2023-09-30T10:05:11;33.65;;;9.98;;
32216;SDS011;67098;51.140;4.088;2023-09-30T10:10:35;28.40;;;7.95;;
32216;SDS011;67098;51.140;4.088;2023-09-30T10:13:04;26.85;;;8.20;;
32216;SDS011;67098;51.140;4.088;2023-09-30T10:15:37;30.05;;;8.50;;
32216;SDS011;67098;51.140;4.088;2023-09-30T10:18:05;21.92;;;7.50;;
32216;SDS011;67098;51.140;4.088;2023-09-30T10:20:35;26.55;;;9.23;;
32216;SDS011;67098;51.140;4.088;2023-09-30T10:25:50;29.75;;;8.52;;
32216;SDS011;67098;51.140;4.088;2023-09-30T10:28:47;23.58;;;6.53;;
32216;SDS011;67098;51.140;4.088;2023-09-30T10:31:16;31.42;;;7.60;;
32216;SDS011;67098;51.140;4.088;2023-09-30T10:36:39;30.45;;;6.10;;
32216;SDS011;67098;51.140;4.088;2023-09-30T10:39:13;27.90;;;6.47;;
32216;SDS011;67098;51.140;4.088;2023-09-30T10:47:00;25.10;;;6.63;;
32216;SDS011;67098;51.140;4.088;2023-09-30T10:49:49;23.85;;;6.05;;
32216;SDS011;67098;51.140;4.088;2023-09-30T10:52:21;22.35;;;5.68;;
32216;SDS011;67098;51.140;4.088;2023-09-30T10:54:50;25.10;;;5.55;;
32216;SDS011;67098;51.140;4.088;2023-09-30T10:57:26;28.80;;;6.45;;
32216;SDS011;67098;51.140;4.088;2023-09-30T11:00:08;26.25;;;5.85;;
32216;SDS011;67098;51.140;4.088;2023-09-30T11:02:47;29.20;;;6.07;;
32216;SDS011;67098;51.140;4.088;2023-09-30T11:05:19;22.52;;;5.90;;
32216;SDS011;67098;51.140;4.088;2023-09-30T11:07:48;18.15;;;4.85;;
32216;SDS011;67098;51.140;4.088;2023-09-30T11:10:18;22.95;;;5.60;;
32216;SDS011;67098;51.140;4.088;2023-09-30T11:12:56;24.05;;;6.55;;
32216;SDS011;67098;51.140;4.088;2023-09-30T11:15:23;20.13;;;5.45;;
32216;SDS011;67098;51.140;4.088;2023-09-30T11:17:51;20.60;;;5.55;;
32216;SDS011;67098;51.140;4.088;2023-09-30T11:20:17;20.50;;;4.85;;
32216;SDS011;67098;51.140;4.088;2023-09-30T11:22:44;20.80;;;5.18;;
32216;SDS011;67098;51.140;4.088;2023-09-30T11:25:17;19.23;;;5.13;;
32216;SDS011;67098;51.140;4.088;2023-09-30T11:28:22;15.70;;;4.53;;
32216;SDS011;67098;51.140;4.088;2023-09-30T11:30:55;20.27;;;4.68;;
32216;SDS011;67098;51.140;4.088;2023-09-30T11:33:25;18.92;;;4.50;;
32216;SDS011;67098;51.140;4.088;2023-09-30T11:35:59;15.80;;;4.47;;
32216;SDS011;67098;51.140;4.088;2023-09-30T11:38:29;15.30;;;4.38;;
32216;SDS011;67098;51.140;4.088;2023-09-30T11:41:04;15.48;;;4.55;;
32216;SDS011;67098;51.140;4.088;2023-09-30T11:43:34;14.93;;;4.15;;
32216;SDS011;67098;51.140;4.088;2023-09-30T11:46:07;16.40;;;4.80;;
32216;SDS011;67098;51.140;4.088;2023-09-30T11:48:37;16.05;;;4.10;;
32216;SDS011;67098;51.140;4.088;2023-09-30T11:51:04;13.43;;;3.70;;
32216;SDS011;67098;51.140;4.088;2023-09-30T11:53:31;15.85;;;3.88;;
32216;SDS011;67098;51.140;4.088;2023-09-30T11:56:00;15.32;;;4.22;;
32216;SDS011;67098;51.140;4.088;2023-09-30T11:58:30;13.48;;;3.72;;
32216;SDS011;67098;51.140;4.088;2023-09-30T12:01:00;10.45;;;3.38;;
32216;SDS011;67098;51.140;4.088;2023-09-30T12:03:26;17.05;;;4.07;;
32216;SDS011;67098;51.140;4.088;2023-09-30T12:05:53;10.65;;;3.90;;
32216;SDS011;67098;51.140;4.088;2023-09-30T12:08:21;16.27;;;4.10;;
32216;SDS011;67098;51.140;4.088;2023-09-30T12:10:49;12.93;;;3.65;;
32216;SDS011;67098;51.140;4.088;2023-09-30T12:13:15;12.93;;;4.00;;
32216;SDS011;67098;51.140;4.088;2023-09-30T12:15:42;14.90;;;3.90;;
32216;SDS011;67098;51.140;4.088;2023-09-30T12:18:09;11.30;;;3.92;;
32216;SDS011;67098;51.140;4.088;2023-09-30T12:20:35;15.48;;;4.10;;
32216;SDS011;67098;51.140;4.088;2023-09-30T12:23:01;11.38;;;3.78;;
32216;SDS011;67098;51.140;4.088;2023-09-30T12:25:30;13.65;;;3.85;;
32216;SDS011;67098;51.140;4.088;2023-09-30T12:27:59;12.98;;;3.72;;
32216;SDS011;67098;51.140;4.088;2023-09-30T12:30:25;14.10;;;3.80;;
32216;SDS011;67098;51.140;4.088;2023-09-30T12:32:51;7.85;;;3.15;;
32216;SDS011;67098;51.140;4.088;2023-09-30T12:35:20;13.38;;;3.60;;
32216;SDS011;67098;51.140;4.088;2023-09-30T12:37:46;12.07;;;3.35;;
32216;SDS011;67098;51.140;4.088;2023-09-30T12:40:12;11.55;;;3.50;;
32216;SDS011;67098;51.140;4.088;2023-09-30T12:42:47;13.27;;;3.97;;
32216;SDS011;67098;51.140;4.088;2023-09-30T12:45:13;11.52;;;3.50;;
32216;SDS011;67098;51.140;4.088;2023-09-30T12:47:43;10.90;;;3.85;;
32216;SDS011;67098;51.140;4.088;2023-09-30T12:50:13;13.68;;;3.85;;
32216;SDS011;67098;51.140;4.088;2023-09-30T12:52:39;10.43;;;2.97;;
32216;SDS011;67098;51.140;4.088;2023-09-30T12:55:05;12.25;;;3.83;;
32216;SDS011;67098;51.140;4.088;2023-09-30T12:57:31;12.63;;;3.53;;
32216;SDS011;67098;51.140;4.088;2023-09-30T13:00:07;12.30;;;3.67;;
32216;SDS011;67098;51.140;4.088;2023-09-30T13:02:34;15.32;;;3.63;;
32216;SDS011;67098;51.140;4.088;2023-09-30T13:05:00;15.98;;;5.03;;
32216;SDS011;67098;51.140;4.088;2023-09-30T13:07:27;14.98;;;4.30;;
32216;SDS011;67098;51.140;4.088;2023-09-30T13:09:53;13.55;;;4.07;;
32216;SDS011;67098;51.140;4.088;2023-09-30T13:12:18;12.10;;;3.97;;
32216;SDS011;67098;51.140;4.088;2023-09-30T13:14:44;13.23;;;4.20;;
32216;SDS011;67098;51.140;4.088;2023-09-30T13:17:13;12.80;;;4.35;;
32216;SDS011;67098;51.140;4.088;2023-09-30T13:19:39;13.52;;;5.10;;
32216;SDS011;67098;51.140;4.088;2023-09-30T13:22:06;14.80;;;4.30;;
32216;SDS011;67098;51.140;4.088;2023-09-30T13:24:32;12.15;;;3.80;;
32216;SDS011;67098;51.140;4.088;2023-09-30T13:27:02;13.43;;;4.07;;
32216;SDS011;67098;51.140;4.088;2023-09-30T13:29:28;15.05;;;4.00;;
32216;SDS011;67098;51.140;4.088;2023-09-30T13:31:54;13.57;;;3.53;;
32216;SDS011;67098;51.140;4.088;2023-09-30T13:34:20;14.05;;;4.00;;
32216;SDS011;67098;51.140;4.088;2023-09-30T13:36:46;13.30;;;3.90;;
32216;SDS011;67098;51.140;4.088;2023-09-30T13:39:12;12.95;;;3.90;;
32216;SDS011;67098;51.140;4.088;2023-09-30T13:41:38;13.15;;;4.28;;
32216;SDS011;67098;51.140;4.088;2023-09-30T13:47:27;13.07;;;3.92;;
32216;SDS011;67098;51.140;4.088;2023-09-30T13:49:56;16.80;;;4.15;;
32216;SDS011;67098;51.140;4.088;2023-09-30T13:52:22;14.93;;;4.25;;
32216;SDS011;67098;51.140;4.088;2023-09-30T13:54:48;11.00;;;4.05;;
32216;SDS011;67098;51.140;4.088;2023-09-30T13:57:14;12.80;;;4.00;;
32216;SDS011;67098;51.140;4.088;2023-09-30T13:59:40;10.75;;;3.97;;
32216;SDS011;67098;51.140;4.088;2023-09-30T14:02:07;12.80;;;3.97;;
32216;SDS011;67098;51.140;4.088;2023-09-30T14:04:33;11.50;;;4.03;;
32216;SDS011;67098;51.140;4.088;2023-09-30T14:07:02;13.00;;;3.47;;
32216;SDS011;67098;51.140;4.088;2023-09-30T14:09:28;11.82;;;4.00;;
32216;SDS011;67098;51.140;4.088;2023-09-30T14:11:55;14.05;;;4.15;;
32216;SDS011;67098;51.140;4.088;2023-09-30T14:14:24;12.73;;;3.83;;
32216;SDS011;67098;51.140;4.088;2023-09-30T14:16:53;14.60;;;4.13;;
32216;SDS011;67098;51.140;4.088;2023-09-30T14:19:22;15.32;;;4.38;;
32216;SDS011;67098;51.140;4.088;2023-09-30T14:21:48;9.60;;;3.80;;
32216;SDS011;67098;51.140;4.088;2023-09-30T14:24:14;12.35;;;4.35;;
32216;SDS011;67098;51.140;4.088;2023-09-30T14:26:40;15.77;;;4.18;;
32216;SDS011;67098;51.140;4.088;2023-09-30T14:29:06;12.82;;;3.38;;
32216;SDS011;67098;51.140;4.088;2023-09-30T14:31:32;13.90;;;3.28;;
32216;SDS011;67098;51.140;4.088;2023-09-30T14:33:58;8.90;;;2.85;;
32216;SDS011;67098;51.140;4.088;2023-09-30T14:36:24;17.08;;;3.17;;
32216;SDS011;67098;51.140;4.088;2023-09-30T14:38:50;10.60;;;3.22;;
32216;SDS011;67098;51.140;4.088;2023-09-30T14:41:16;13.27;;;3.22;;
32216;SDS011;67098;51.140;4.088;2023-09-30T14:43:43;10.73;;;3.42;;
32216;SDS011;67098;51.140;4.088;2023-09-30T14:46:09;13.30;;;3.25;;
32216;SDS011;67098;51.140;4.088;2023-09-30T14:48:35;9.38;;;2.97;;
32216;SDS011;67098;51.140;4.088;2023-09-30T14:51:01;10.80;;;3.03;;
32216;SDS011;67098;51.140;4.088;2023-09-30T14:53:46;11.55;;;3.40;;